Time;durP1;ratioP1;P1;durP2;ratioP2;P2;SDS_P1;SDS_P2;PMS_P1;PMS_P2;Temp;Humidity;BMP_temperature;BMP_pressure;BME280_temperature;BME280_humidity;BME280_pressure;Samples;Min_cycle;Max_cycle;Signal;HPM_P1;HPM_P2
2023/08/26 00:01:17;;;;;;;8.32;6.05;;;;;;;19.72;100.00;99659.19;4928515;29;20048;-78
2023/08/26 00:03:43;;;;;;;7.30;5.90;;;;;;;19.74;100.00;99665.25;4938927;29;20451;-78
2023/08/26 00:06:09;;;;;;;7.68;6.30;;;;;;;19.71;100.00;99665.06;4945435;28;20134;-78
2023/08/26 00:08:35;;;;;;;8.80;5.68;;;;;;;19.65;100.00;99656.00;4942671;29;20035;-78
2023/08/26 00:11:02;;;;;;;8.25;6.18;;;;;;;19.65;100.00;99656.84;4942268;29;20400;-77
2023/08/26 00:13:29;;;;;;;9.10;6.30;;;;;;;19.69;100.00;99659.81;4943484;29;20578;-77
2023/08/26 00:15:55;;;;;;;10.13;6.38;;;;;;;19.67;100.00;99654.59;4940153;28;20043;-78
2023/08/26 00:18:21;;;;;;;7.90;6.13;;;;;;;19.68;100.00;99645.16;4943125;29;20507;-77
2023/08/26 00:20:47;;;;;;;9.68;6.03;;;;;;;19.76;100.00;99645.59;4942676;29;20126;-78
2023/08/26 00:23:13;;;;;;;12.25;6.03;;;;;;;19.80;100.00;99643.84;4945220;29;20040;-78
2023/08/26 00:25:39;;;;;;;8.88;6.05;;;;;;;19.79;100.00;99650.50;4943332;28;20040;-78
2023/08/26 00:28:05;;;;;;;9.85;6.40;;;;;;;19.76;100.00;99651.97;4940022;29;20047;-78
2023/08/26 00:30:31;;;;;;;8.10;6.30;;;;;;;19.78;100.00;99648.88;4943685;29;20110;-78
2023/08/26 00:32:57;;;;;;;8.52;6.30;;;;;;;19.77;100.00;99653.59;4938441;29;20528;-78
2023/08/26 00:35:24;;;;;;;8.50;6.32;;;;;;;19.74;100.00;99653.38;4948938;28;20053;-78
2023/08/26 00:37:51;;;;;;;8.57;6.70;;;;;;;19.75;100.00;99649.47;4940679;29;20039;-78
2023/08/26 00:40:18;;;;;;;10.60;6.85;;;;;;;19.73;100.00;99648.97;4934023;29;20130;-78
2023/08/26 00:42:44;;;;;;;10.52;7.22;;;19.00;99.90;;;19.71;100.00;99649.25;4953079;28;20031;-78
2023/08/26 00:45:09;;;;;;;11.40;8.32;;;18.40;99.90;;;19.67;100.00;99643.53;4948254;28;20082;-78
2023/08/26 00:47:37;;;;;;;10.60;8.02;;;18.40;99.90;;;19.55;100.00;99621.03;4944968;29;20036;-78
2023/08/26 00:50:04;;;;;;;16.30;7.90;;;18.30;99.90;;;19.68;100.00;99639.63;4948624;29;20456;-78
2023/08/26 00:52:30;;;;;;;9.77;7.70;;;18.30;99.90;;;19.67;100.00;99638.00;4946448;29;20095;-77
2023/08/26 00:54:56;;;;;;;12.77;8.30;;;18.30;99.90;;;19.70;100.00;99639.31;4939455;29;20087;-78
2023/08/26 00:57:23;;;;;;;13.27;8.57;;;18.30;99.90;;;19.73;100.00;99637.91;4937176;29;20429;-77
2023/08/26 00:59:50;;;;;;;12.10;8.52;;;;;;;19.75;100.00;99630.91;4948785;29;20035;-78
2023/08/26 01:02:16;;;;;;;13.05;8.70;;;;;;;19.77;100.00;99625.09;4951703;29;20039;-78
2023/08/26 01:04:42;;;;;;;12.80;9.13;;;;;;;19.83;100.00;99629.41;4938403;29;20036;-78
2023/08/26 01:07:09;;;;;;;11.07;9.32;;;;;;;19.89;100.00;99639.28;4952608;28;20047;-78
2023/08/26 01:09:37;;;;;;;13.45;9.63;;;;;;;19.89;100.00;99635.69;4939967;28;20036;-78
2023/08/26 01:12:49;;;;;;;15.55;9.10;;;;;;;19.90;100.00;99635.38;4938523;29;20109;-78
2023/08/26 01:15:17;;;;;;;12.68;9.60;;;;;;;19.89;100.00;99639.28;4940272;29;20051;-78
2023/08/26 01:17:44;;;;;;;12.35;9.52;;;;;;;19.85;100.00;99638.22;4950128;29;20078;-79
2023/08/26 01:20:13;;;;;;;13.38;9.68;;;;;;;19.76;100.00;99635.34;4944659;28;20048;-78
2023/08/26 01:22:44;;;;;;;13.55;10.13;;;;;;;19.73;100.00;99624.06;4939567;28;20082;-78
2023/08/26 01:25:10;;;;;;;13.45;10.18;;;;;;;19.69;100.00;99630.22;4936217;29;20468;-78
2023/08/26 01:27:36;;;;;;;14.02;9.30;;;;;;;19.68;100.00;99631.34;4948078;28;20385;-77
2023/08/26 01:30:03;;;;;;;13.25;10.18;;;;;;;19.64;100.00;99632.22;4936413;28;20048;-77
2023/08/26 01:32:52;;;;;;;13.45;9.55;;;;;;;19.53;100.00;99632.41;4947959;29;20071;-78
2023/08/26 01:35:23;;;;;;;13.60;10.53;;;;;;;19.40;100.00;99611.88;4937885;28;20051;-77
2023/08/26 01:37:51;;;;;;;18.42;11.93;;;;;;;19.39;100.00;99598.34;4959020;28;20328;-78
2023/08/26 01:40:19;;;;;;;18.25;12.55;;;;;;;19.44;100.00;99594.69;4945856;29;20041;-77
2023/08/26 01:42:47;;;;;;;20.92;13.55;;;;;;;19.45;100.00;99597.13;4948649;28;20039;-77
2023/08/26 01:45:14;;;;;;;23.15;14.60;;;;;;;19.48;100.00;99590.19;4946248;29;20445;-77
2023/08/26 01:47:41;;;;;;;17.60;13.75;;;;;;;19.49;100.00;99600.13;4950975;29;20509;-78
2023/08/26 01:50:07;;;;;;;21.85;14.32;;;;;;;19.38;100.00;99586.47;4950841;29;20039;-78
2023/08/26 01:52:34;;;;;;;21.88;16.00;;;;;;;19.43;100.00;99601.34;4949759;29;20476;-78
2023/08/26 01:55:00;;;;;;;23.40;15.48;;;;;;;19.37;100.00;99589.53;4951183;29;20038;-78
2023/08/26 01:57:26;;;;;;;23.10;15.95;;;;;;;19.33;100.00;99589.31;4937958;28;20460;-78
2023/08/26 01:59:53;;;;;;;23.95;16.75;;;;;;;19.21;100.00;99583.44;4955165;28;20511;-78
2023/08/26 02:02:19;;;;;;;32.42;18.67;;;;;;;19.19;100.00;99552.50;4951677;29;20045;-78
2023/08/26 02:04:46;;;;;;;26.13;17.67;;;;;;;19.20;100.00;99557.72;4948245;29;20046;-78
2023/08/26 02:07:12;;;;;;;27.77;17.42;;;;;;;19.13;100.00;99570.31;4944491;29;20389;-78
2023/08/26 02:09:38;;;;;;;28.38;17.90;;;;;;;19.09;100.00;99562.59;4953639;28;20468;-77
2023/08/26 02:12:05;;;;;;;29.60;18.58;;;;;;;19.04;100.00;99568.19;4942955;29;20127;-78
2023/08/26 02:14:31;;;;;;;28.97;19.77;;;;;;;19.02;100.00;99556.63;4940830;29;20032;-78
2023/08/26 02:16:58;;;;;;;33.97;20.52;;;;;;;19.01;100.00;99546.69;4948625;29;20126;-78
2023/08/26 02:19:24;;;;;;;33.33;21.23;;;;;;;19.02;100.00;99539.25;4949269;28;20062;-78
2023/08/26 02:21:52;;;;;;;38.17;21.27;;;;;;;18.96;100.00;99528.25;4941387;28;20459;-77
2023/08/26 02:24:22;;;;;;;36.85;21.38;;;;;;;18.93;100.00;99541.81;4938087;29;20047;-78
2023/08/26 02:26:48;;;;;;;35.45;21.35;;;;;;;18.94;100.00;99549.00;4938555;29;20045;-78
2023/08/26 02:29:14;;;;;;;30.88;19.88;;;;;;;18.93;100.00;99547.34;4933749;29;20425;-78
2023/08/26 02:31:41;;;;;;;35.50;20.85;;;;;;;18.92;100.00;99554.00;4947336;29;20121;-78
2023/08/26 02:34:07;;;;;;;32.47;21.30;;;;;;;18.93;100.00;99553.69;4947601;29;20058;-78
2023/08/26 02:36:32;;;;;;;40.38;22.67;;;18.40;99.90;;;18.84;100.00;99541.66;4949621;29;20035;-77
2023/08/26 02:38:58;;;;;;;37.10;22.38;;;17.60;99.90;;;18.91;100.00;99536.59;4945415;29;20042;-78
2023/08/26 02:41:24;;;;;;;38.13;21.65;;;17.60;99.90;;;18.92;100.00;99535.47;4941182;28;20032;-78
2023/08/26 02:43:49;;;;;;;37.95;21.17;;;17.60;99.90;;;18.91;100.00;99528.28;4949449;28;20483;-77
2023/08/26 02:46:16;;;;;;;32.58;21.13;;;17.60;99.90;;;18.86;100.00;99533.91;4924781;29;20058;-77
2023/08/26 02:48:41;;;;;;;39.33;23.35;;;17.50;99.90;;;18.81;100.00;99551.38;4956616;28;20059;-78
2023/08/26 02:51:07;;;;;;;50.85;27.17;;;17.40;99.90;;;18.77;100.00;99541.22;4948282;29;20046;-78
2023/08/26 02:53:33;;;;;;;50.88;27.35;;;17.50;99.90;;;18.79;100.00;99525.97;4935662;29;20054;-78
2023/08/26 02:56:00;;;;;;;48.92;26.98;;;17.50;99.90;;;18.82;100.00;99533.66;4941369;28;20098;-78
2023/08/26 02:58:25;;;;;;;43.38;24.95;;;17.50;99.90;;;18.88;100.00;99552.97;4940736;29;20146;-78
2023/08/26 03:00:52;;;;;;;51.47;27.00;;;17.50;99.90;;;18.89;100.00;99543.53;4938582;29;20744;-78
2023/08/26 03:03:18;;;;;;;50.58;28.63;;;17.60;99.90;;;18.95;100.00;99542.34;4940291;29;20053;-78
2023/08/26 03:05:43;;;;;;;56.28;28.30;;;17.70;99.90;;;18.97;100.00;99537.34;4946928;28;20047;-78
2023/08/26 03:08:09;;;;;;;59.50;30.25;;;17.70;99.90;;;19.11;100.00;99535.50;4934722;29;20055;-78
2023/08/26 03:10:35;;;;;;;55.05;30.10;;;;;;;19.18;100.00;99512.16;4935067;29;20039;-78
2023/08/26 03:13:01;;;;;;;50.47;30.05;;;17.80;99.90;;;19.24;100.00;99514.53;4949244;28;20051;-77
2023/08/26 03:15:28;;;;;;;53.38;30.27;;;17.90;99.90;;;19.29;100.00;99518.34;4953669;28;20043;-78
2023/08/26 03:17:56;;;;;;;55.10;31.42;;;17.90;99.90;;;19.29;100.00;99521.09;4937641;29;20031;-78
2023/08/26 03:20:23;;;;;;;56.97;31.38;;;17.90;99.90;;;19.32;100.00;99531.56;4950166;28;20047;-78
2023/08/26 03:22:50;;;;;;;56.70;31.45;;;17.90;99.90;;;19.24;100.00;99528.38;4938019;29;20447;-78
2023/08/26 03:25:17;;;;;;;54.30;32.08;;;18.00;99.90;;;19.31;100.00;99541.78;4943566;29;20042;-78
2023/08/26 03:27:43;;;;;;;59.87;33.93;;;18.00;99.90;;;19.32;100.00;99548.16;4954476;28;20114;-78
2023/08/26 03:30:10;;;;;;;63.67;34.67;;;17.90;99.90;;;19.32;100.00;99534.31;4942501;29;20368;-78
2023/08/26 03:32:36;;;;;;;64.65;34.60;;;17.90;99.90;;;19.33;100.00;99524.91;4936582;28;20536;-78
2023/08/26 03:35:02;;;;;;;65.13;36.15;;;17.90;99.90;;;19.36;100.00;99549.19;4944049;29;20035;-78
2023/08/26 03:37:30;;;;;;;65.75;37.15;;;17.90;99.90;;;19.37;100.00;99557.19;4952028;28;20058;-78
2023/08/26 03:39:56;;;;;;;64.88;34.95;;;18.00;99.90;;;19.34;100.00;99549.47;4948387;29;20437;-78
2023/08/26 03:42:21;;;;;;;59.95;36.33;;;18.00;99.90;;;19.33;100.00;99553.34;4935415;29;20099;-78
2023/08/26 03:44:47;;;;;;;67.30;37.15;;;17.90;99.90;;;19.31;100.00;99561.13;4935687;28;20193;-78
2023/08/26 03:47:13;;;;;;;75.13;39.13;;;17.90;99.90;;;19.28;100.00;99545.16;4947025;28;20031;-78
2023/08/26 03:49:39;;;;;;;74.50;41.25;;;17.90;99.90;;;19.34;100.00;99551.44;4942655;28;20055;-78
2023/08/26 03:52:05;;;;;;;71.20;39.97;;;18.00;99.90;;;19.35;100.00;99558.59;4942197;29;20053;-78
2023/08/26 03:54:31;;;;;;;77.57;42.03;;;17.90;99.90;;;19.37;100.00;99576.53;4959965;28;20035;-78
2023/08/26 03:56:56;;;;;;;81.50;43.45;;;18.00;99.90;;;19.35;100.00;99576.00;4941442;29;20049;-77
2023/08/26 03:59:22;;;;;;;83.80;43.95;;;18.00;99.90;;;19.35;100.00;99576.00;4940351;29;20062;-77
2023/08/26 04:01:48;;;;;;;85.90;44.75;;;18.00;99.90;;;19.40;100.00;99575.09;4943124;29;20063;-78
2023/08/26 04:04:15;;;;;;;78.78;44.15;;;18.00;99.90;;;19.33;100.00;99588.50;4947544;29;20425;-78
2023/08/26 04:06:41;;;;;;;77.25;42.33;;;18.00;99.90;;;19.36;100.00;99583.19;4956554;28;20492;-77
2023/08/26 04:09:07;;;;;;;76.15;41.40;;;17.90;99.90;;;19.33;100.00;99569.94;4933785;28;20039;-77
2023/08/26 04:11:33;;;;;;;73.18;43.03;;;;;;;19.32;100.00;99581.31;4962723;28;20556;-78
2023/08/26 04:13:59;;;;;;;77.88;42.75;;;;;;;19.27;100.00;99576.69;4949056;28;20369;-77
2023/08/26 04:16:25;;;;;;;72.30;41.90;;;;;;;19.22;100.00;99562.94;4936955;29;20065;-77
2023/08/26 04:18:52;;;;;;;77.30;43.50;;;;;;;19.33;100.00;99566.38;4942975;28;20059;-78
2023/08/26 04:21:18;;;;;;;76.88;42.78;;;;;;;19.27;100.00;99568.41;4947971;28;20048;-79
2023/08/26 04:23:45;;;;;;;80.85;44.53;;;;;;;19.30;100.00;99576.09;4946105;29;20143;-79
2023/08/26 04:26:11;;;;;;;76.13;43.08;;;;;;;19.33;100.00;99578.25;4946782;28;20079;-78
2023/08/26 04:28:37;;;;;;;70.15;42.42;;;;;;;19.39;100.00;99590.88;4963544;28;20663;-78
2023/08/26 04:31:03;;;;;;;73.70;42.03;;;;;;;19.45;100.00;99610.94;4949896;29;20055;-79
2023/08/26 04:33:29;;;;;;;69.35;40.90;;;;;;;19.45;100.00;99619.25;4949674;29;20043;-78
2023/08/26 04:35:57;;;;;;;75.05;42.17;;;;;;;19.43;100.00;99620.69;4950555;29;20075;-79
2023/08/26 04:38:23;;;;;;;69.53;42.10;;;;;;;19.39;100.00;99631.53;4950759;29;20456;-79
2023/08/26 04:40:50;;;;;;;71.13;41.78;;;;;;;19.46;100.00;99637.47;4936991;29;20035;-78
2023/08/26 04:43:17;;;;;;;72.70;40.97;;;;;;;19.46;100.00;99643.00;4950923;29;20035;-79
2023/08/26 04:45:43;;;;;;;69.85;39.78;;;;;;;19.47;100.00;99641.88;4944019;28;20286;-79
2023/08/26 04:48:10;;;;;;;72.35;41.03;;;;;;;19.48;100.00;99653.78;4951021;28;20063;-78
2023/08/26 04:50:36;;;;;;;66.65;40.55;;;;;;;19.50;100.00;99654.31;4949142;28;20399;-79
2023/08/26 04:53:03;;;;;;;64.95;40.35;;;;;;;19.51;100.00;99659.56;4947472;28;20036;-79
2023/08/26 04:55:31;;;;;;;68.30;41.30;;;;;;;19.50;100.00;99666.22;4934509;29;20114;-79
2023/08/26 04:57:57;;;;;;;67.70;41.05;;;;;;;19.38;100.00;99672.19;4946690;28;20579;-77
2023/08/26 05:00:25;;;;;;;69.07;40.83;;;;;;;19.47;100.00;99682.56;4949695;28;20373;-78
2023/08/26 05:02:53;;;;;;;70.35;41.20;;;;;;;19.46;100.00;99686.47;4949541;29;20063;-78
2023/08/26 05:05:19;;;;;;;66.10;41.47;;;;;;;19.39;100.00;99692.34;4946495;29;20032;-79
2023/08/26 05:07:53;;;;;;;69.45;41.40;;;;;;;19.41;100.00;99703.94;4943462;28;20087;-80
2023/08/26 05:10:19;;;;;;;67.80;40.78;;;;;;;19.40;100.00;99713.34;4951366;29;20067;-79
2023/08/26 05:12:46;;;;;;;68.80;41.88;;;;;;;19.36;100.00;99720.63;4941981;28;20058;-79
2023/08/26 05:15:12;;;;;;;67.88;41.17;;;;;;;19.33;100.00;99710.97;4938183;29;20051;-79
2023/08/26 05:17:42;;;;;;;72.25;42.42;;;;;;;19.31;100.00;99713.22;4942976;29;20040;-78
2023/08/26 05:20:09;;;;;;;68.75;41.38;;;;;;;19.26;100.00;99707.75;4941974;29;20062;-79
2023/08/26 05:22:35;;;;;;;70.95;42.92;;;;;;;19.26;100.00;99705.00;4936966;29;20043;-79
2023/08/26 05:25:01;;;;;;;70.10;42.63;;;;;;;19.32;100.00;99711.28;4945411;29;20199;-79
2023/08/26 05:27:28;;;;;;;66.07;42.80;;;;;;;19.38;100.00;99727.50;4949010;29;20487;-79
2023/08/26 05:29:55;;;;;;;72.13;41.55;;;;;;;19.44;100.00;99732.94;4942329;29;20043;-78
2023/08/26 05:32:25;;;;;;;67.78;42.13;;;;;;;19.50;100.00;99737.28;4940474;28;20046;-79
2023/08/26 05:34:51;;;;;;;67.57;40.88;;;;;;;19.60;100.00;99734.34;4945771;29;20036;-79
2023/08/26 05:37:18;;;;;;;65.47;40.72;;;;;;;19.66;100.00;99751.69;4947945;29;20032;-79
2023/08/26 05:39:44;;;;;;;63.97;40.55;;;;;;;19.76;100.00;99765.41;4950528;29;20040;-78
2023/08/26 05:42:10;;;;;;;58.17;39.45;;;;;;;19.88;100.00;99780.72;4947162;29;20046;-77
2023/08/26 05:44:39;;;;;;;59.03;39.30;;;;;;;20.02;100.00;99798.22;4949072;28;20632;-79
2023/08/26 05:47:06;;;;;;;56.33;38.05;;;;;;;20.16;100.00;99825.97;4946707;29;20036;-83
2023/08/26 05:49:35;;;;;;;46.17;34.22;;;;;;;20.11;100.00;99867.56;4951699;29;20034;-80
2023/08/26 05:52:02;;;;;;;45.50;32.13;;;;;;;20.25;100.00;99901.69;4944048;29;20040;-81
2023/08/26 05:54:29;;;;;;;41.47;30.00;;;;;;;20.35;100.00;99922.88;4949524;28;20031;-80
2023/08/26 05:56:56;;;;;;;37.63;29.88;;;;;;;20.41;100.00;99915.28;4941171;29;20793;-80
2023/08/26 05:59:22;;;;;;;40.88;29.35;;;;;;;20.51;100.00;99940.09;4945185;29;20353;-80
2023/08/26 06:01:49;;;;;;;38.22;27.35;;;;;;;20.70;100.00;99955.88;4950858;29;20035;-81
2023/08/26 06:04:15;;;;;;;38.05;26.58;;;;;;;20.60;100.00;99958.78;4947364;28;20038;-81
2023/08/26 06:06:41;;;;;;;36.50;25.38;;;;;;;20.44;100.00;99980.34;4941885;29;20070;-80
2023/08/26 06:09:09;;;;;;;32.38;24.88;;;;;;;20.41;100.00;99977.06;4947687;29;20121;-81
2023/08/26 06:11:38;;;;;;;31.55;23.33;;;;;;;20.46;100.00;99984.50;4940857;28;20091;-80
2023/08/26 06:14:05;;;;;;;33.33;22.17;;;;;;;20.44;100.00;99999.75;4950889;28;20042;-81
2023/08/26 06:16:31;;;;;;;30.15;22.27;;;;;;;20.43;100.00;99998.94;4947985;28;20300;-80
2023/08/26 06:18:58;;;;;;;25.77;20.30;;;;;;;20.37;100.00;99997.34;4951056;29;20039;-80
2023/08/26 06:21:24;;;;;;;28.50;21.33;;;;;;;20.23;100.00;99994.50;4945959;29;20043;-80
2023/08/26 06:23:51;;;;;;;27.92;21.08;;;;;;;20.43;100.00;99996.16;4947657;29;20031;-80
2023/08/26 06:26:17;;;;;;;29.90;21.57;;;;;;;20.51;100.00;99997.41;4950777;28;20130;-80
2023/08/26 06:28:43;;;;;;;30.33;22.17;;;;;;;20.56;100.00;100011.22;4948937;29;20122;-81
2023/08/26 06:31:10;;;;;;;24.77;20.30;;;;;;;20.33;100.00;100019.28;4951430;28;20118;-80
2023/08/26 06:33:41;;;;;;;28.40;20.15;;;;;;;20.22;100.00;100029.69;4949948;28;20028;-80
2023/08/26 06:36:09;;;;;;;28.27;19.67;;;;;;;20.27;100.00;100017.69;4946673;29;20039;-85
2023/08/26 06:38:35;;;;;;;27.50;20.52;;;;;;;20.46;100.00;100026.03;4935554;29;20050;-83
2023/08/26 06:41:01;;;;;;;28.50;20.45;;;;;;;20.65;100.00;100037.13;4949127;29;20440;-84
2023/08/26 06:43:28;;;;;;;27.42;20.05;;;;;;;20.97;100.00;100041.09;4950963;28;20039;-83
2023/08/26 06:45:54;;;;;;;26.77;19.85;;;;;;;21.19;100.00;100055.44;4947096;29;20035;-82
2023/08/26 06:48:20;;;;;;;24.17;19.17;;;;;;;20.83;100.00;100060.44;4932745;29;20062;-84
2023/08/26 06:50:50;;;;;;;25.77;19.60;;;;;;;20.53;100.00;100061.66;4953206;28;20051;-84
2023/08/26 06:53:23;;;;;;;27.13;20.08;;;;;;;20.48;100.00;100068.13;4944332;29;20035;-83
2023/08/26 06:55:53;;;;;;;25.48;19.20;;;;;;;20.36;100.00;100078.78;4940987;29;20032;-87
2023/08/26 06:58:20;;;;;;;25.55;19.98;;;;;;;20.33;100.00;100079.38;4952634;29;20513;-91
2023/08/26 07:00:47;;;;;;;25.77;18.98;;;;;;;20.42;100.00;100083.13;4946052;29;20054;-85
2023/08/26 07:03:13;;;;;;;25.90;18.13;;;;;;;20.49;100.00;100088.31;4947992;29;20489;-88
2023/08/26 07:05:43;;;;;;;24.02;17.58;;;;;;;20.43;100.00;100101.44;4952566;29;20047;-86
2023/08/26 07:08:09;;;;;;;21.90;18.38;;;;;;;20.57;100.00;100106.22;4935677;29;20438;-87
2023/08/26 07:10:35;;;;;;;12.90;8.90;;;;;;;19.74;100.00;100123.75;4940275;29;20106;-85
2023/08/26 07:13:01;;;;;;;7.20;4.57;;;;;;;19.64;100.00;100132.97;4945434;29;20035;-81
2023/08/26 07:15:28;;;;;;;8.13;3.13;;;;;;;19.39;100.00;100134.84;4946719;28;20086;-85
2023/08/26 07:17:54;;;;;;;5.55;2.75;;;;;;;19.35;100.00;100147.59;4950785;29;20484;-84
2023/08/26 07:20:20;;;;;;;4.97;2.55;;;;;;;19.18;100.00;100159.06;4939015;29;20141;-87
2023/08/26 07:22:46;;;;;;;5.38;1.85;;;;;;;18.93;100.00;100155.31;4953886;29;20043;-85
2023/08/26 07:25:13;;;;;;;5.15;1.50;;;;;;;18.88;100.00;100160.88;4943319;28;20058;-88
2023/08/26 07:27:40;;;;;;;4.40;1.60;;;;;;;18.98;100.00;100160.81;4949627;28;20450;-85
2023/08/26 07:30:07;;;;;;;4.85;1.52;;;;;;;18.94;100.00;100168.00;4946357;29;20031;-83
2023/08/26 07:32:33;;;;;;;4.18;1.45;;;;;;;19.38;100.00;100172.75;4940643;29;20119;-86
2023/08/26 07:35:00;;;;;;;3.20;1.20;;;;;;;19.47;100.00;100177.66;4936029;29;20126;-88
2023/08/26 07:37:27;;;;;;;3.35;1.20;;;;;;;19.37;100.00;100178.53;4938572;29;20565;-84
2023/08/26 07:39:54;;;;;;;6.20;1.30;;;;;;;19.31;100.00;100176.94;4942668;28;20063;-81
2023/08/26 07:42:20;;;;;;;2.72;1.00;;;;;;;19.28;100.00;100178.31;4939907;29;20072;-87
2023/08/26 07:44:47;;;;;;;3.85;1.38;;;;;;;19.09;100.00;100181.75;4939929;29;20480;-85
2023/08/26 07:47:13;;;;;;;6.53;1.42;;;;;;;19.37;98.52;100175.78;4950352;29;20035;-84
2023/08/26 07:49:39;;;;;;;4.10;1.10;;;;;;;19.30;99.34;100191.88;4946334;28;20046;-85
2023/08/26 07:52:05;;;;;;;4.28;1.27;;;;;;;19.41;100.00;100190.69;4952091;28;20039;-85
2023/08/26 07:54:31;;;;;;;4.32;1.05;;;;;;;19.36;99.91;100199.84;4943667;28;20094;-83
2023/08/26 07:56:57;;;;;;;3.22;1.10;;;;;;;19.21;97.26;100202.72;4946396;29;20087;-84
2023/08/26 07:59:23;;;;;;;7.38;2.15;;;;;;;19.46;100.00;100204.47;4950134;28;20500;-84
2023/08/26 08:01:49;;;;;;;4.60;1.00;;;;;;;19.62;99.67;100210.72;4943698;29;20134;-83
2023/08/26 08:04:15;;;;;;;2.47;1.10;;;;;;;19.51;97.15;100220.22;4954017;29;20083;-86
2023/08/26 08:06:42;;;;;;;4.20;1.23;;;;;;;19.32;94.50;100201.53;4952691;29;20038;-83
2023/08/26 08:09:09;;;;;;;4.45;1.20;;;;;;;19.48;90.80;100227.13;4946083;29;20548;-85
2023/08/26 08:11:35;;;;;;;3.50;0.93;;;;;;;19.38;93.92;100241.88;4948139;29;20391;-89
2023/08/26 08:14:01;;;;;;;2.92;1.00;;;;;;;19.63;97.04;100241.97;4941548;29;20507;-87
2023/08/26 08:16:30;;;;;;;3.90;1.00;;;;;;;19.98;94.69;100235.38;4957383;29;20039;-84
2023/08/26 08:18:57;;;;;;;3.60;1.10;;;;;;;20.24;89.39;100237.91;4938979;29;20052;-90
2023/08/26 08:21:23;;;;;;;3.10;1.00;;;;;;;19.92;89.70;100247.63;4939974;29;20128;-87
2023/08/26 08:23:49;;;;;;;2.25;0.90;;;;;;;19.62;88.46;100251.41;4957660;29;20054;-83
2023/08/26 08:26:16;;;;;;;4.85;1.10;;;;;;;19.87;91.74;100252.31;4945091;29;20063;-85
2023/08/26 08:28:43;;;;;;;3.70;1.00;;;;;;;19.97;89.76;100239.25;4964025;29;20031;-83
2023/08/26 08:31:09;;;;;;;3.38;1.08;;;;;;;19.85;92.09;100255.38;4946344;28;20050;-84
2023/08/26 08:33:35;;;;;;;2.78;0.90;;;;;;;20.10;92.69;100253.53;4958216;29;20186;-84
2023/08/26 08:36:01;;;;;;;3.70;1.00;;;;;;;20.49;90.87;100244.31;4971592;29;20084;-85
2023/08/26 08:38:27;;;;;;;3.97;1.08;;;18.00;99.90;;;20.71;92.09;100240.19;4951559;29;20032;-88
2023/08/26 08:40:53;;;;;;;3.45;0.75;;;19.80;99.00;;;20.67;89.86;100247.41;4950227;29;20117;-85
2023/08/26 08:43:21;;;;;;;2.88;1.00;;;19.90;97.60;;;20.65;88.38;100230.25;4946493;28;20052;-87
2023/08/26 08:45:50;;;;;;;3.78;1.10;;;19.80;97.30;;;20.51;89.04;100244.81;4948142;29;20039;-91
2023/08/26 08:48:19;;;;;;;3.75;1.10;;;19.80;96.50;;;20.54;91.41;100215.69;4946289;29;20127;-87
2023/08/26 08:50:45;;;;;;;4.63;1.10;;;19.80;97.60;;;20.66;90.58;100254.06;4939957;29;20036;-86
2023/08/26 08:53:13;;;;;;;4.10;0.98;;;19.90;98.30;;;20.48;89.85;100230.72;4951414;29;20567;-86
2023/08/26 08:55:40;;;;;;;6.18;1.10;;;19.80;97.00;;;20.82;95.10;100249.22;4938792;29;20052;-88
2023/08/26 08:58:08;;;;;;;3.63;1.13;;;19.90;98.90;;;20.94;89.48;100237.69;4929853;29;20492;-80
2023/08/26 09:00:34;;;;;;;4.03;0.98;;;20.10;97.00;;;20.99;92.00;100265.38;4941709;29;20057;-86
2023/08/26 09:03:06;;;;;;;3.92;1.10;;;20.20;98.10;;;20.74;83.41;100244.28;4944113;28;20036;-81
2023/08/26 09:05:32;;;;;;;2.30;1.10;;;20.20;94.70;;;20.76;85.38;100248.44;4949235;28;20031;-83
2023/08/26 09:07:59;;;;;;;3.40;1.13;;;20.20;95.20;;;21.00;83.67;100255.94;4949954;29;20602;-84
2023/08/26 09:10:28;;;;;;;4.18;1.00;;;20.20;94.90;;;20.93;91.00;100263.78;4945191;28;20082;-81
2023/08/26 09:12:54;;;;;;;5.18;1.45;;;20.30;96.50;;;20.80;80.95;100260.59;4946365;29;20066;-81
2023/08/26 09:15:21;;;;;;;4.78;1.00;;;20.20;93.20;;;20.77;87.17;100252.84;4940516;29;20040;-82
2023/08/26 09:17:46;;;;;;;2.77;1.00;;;20.20;95.20;;;20.67;82.53;100252.94;4951074;28;20039;-80
2023/08/26 09:20:12;;;;;;;7.15;1.10;;;20.10;93.80;;;20.66;82.07;100260.47;4953889;28;20423;-85
2023/08/26 09:22:38;;;;;;;3.33;1.02;;;20.00;93.80;;;20.40;83.82;100269.03;4945409;28;20496;-87
2023/08/26 09:25:05;;;;;;;3.58;1.05;;;19.80;94.00;;;20.48;89.93;100269.50;4953222;29;20101;-84
2023/08/26 09:27:41;;;;;;;3.47;0.90;;;19.70;96.20;;;20.80;86.23;100268.91;4952806;28;20031;-84
2023/08/26 09:30:08;;;;;;;2.65;0.93;;;19.90;95.20;;;20.89;82.30;100258.00;4946086;28;20032;-84
2023/08/26 09:32:39;;;;;;;5.15;1.10;;;20.10;94.10;;;20.97;83.02;100271.22;4940961;28;20047;-83
2023/08/26 09:35:14;;;;;;;3.65;1.10;;;20.20;94.00;;;21.34;83.57;100274.34;4951708;28;20031;-82
2023/08/26 09:37:46;;;;;;;2.03;0.88;;;20.60;94.20;;;21.35;83.28;100280.69;4944055;29;20044;-83
2023/08/26 09:40:15;;;;;;;3.40;1.05;;;20.70;93.70;;;21.49;77.28;100278.84;4953180;29;20119;-82
2023/08/26 09:42:41;;;;;;;5.03;1.10;;;20.80;92.60;;;21.70;76.54;100281.34;4957340;29;20039;-85
2023/08/26 09:45:09;;;;;;;4.00;1.20;;;;;;;22.04;74.88;100280.25;4953227;29;20110;-85
2023/08/26 09:47:37;;;;;;;4.57;1.30;;;;;;;21.53;76.98;100287.41;4945314;29;20070;-84
2023/08/26 09:50:04;;;;;;;2.15;0.85;;;;;;;22.07;72.80;100292.72;4946960;29;20116;-84
2023/08/26 09:52:40;;;;;;;5.20;1.50;;;;;;;21.48;72.26;100287.44;4957396;29;20042;-82
2023/08/26 09:55:07;;;;;;;3.28;1.00;;;;;;;21.66;72.64;100288.63;4948652;29;20040;-84
2023/08/26 09:57:33;;;;;;;4.75;1.10;;;;;;;21.86;71.13;100293.03;4944644;29;20480;-81
2023/08/26 09:59:59;;;;;;;4.40;1.10;;;;;;;21.45;74.22;100293.59;4955828;29;20036;-83
2023/08/26 10:02:27;;;;;;;2.60;1.00;;;;;;;21.62;73.11;100296.69;4961106;29;20046;-86
2023/08/26 10:04:56;;;;;;;6.82;1.08;;;;;;;21.60;72.01;100298.09;4965848;29;20019;-82
2023/08/26 10:07:29;;;;;;;5.53;1.00;;;;;;;21.86;69.50;100306.91;4962599;29;20071;-85
2023/08/26 10:10:10;;;;;;;3.22;1.00;;;;;;;22.41;65.57;100311.00;4949935;29;20036;-84
2023/08/26 10:12:46;;;;;;;2.78;1.00;;;;;;;21.92;70.04;100299.34;4946888;29;20078;-88
2023/08/26 10:15:14;;;;;;;4.82;1.10;;;;;;;22.27;69.25;100289.56;4934533;29;20177;-85
2023/08/26 10:17:43;;;;;;;3.88;0.85;;;;;;;22.87;69.45;100300.19;4948200;29;20039;-86
2023/08/26 10:20:11;;;;;;;4.82;1.17;;;;;;;23.57;59.00;100289.81;4956021;28;20043;-88
2023/08/26 10:22:38;;;;;;;3.35;1.05;;;;;;;24.27;59.35;100289.56;4954313;29;20047;-84
2023/08/26 10:25:07;;;;;;;4.68;1.20;;;;;;;25.32;53.48;100300.34;4951640;29;20538;-87
2023/08/26 10:27:36;;;;;;;2.53;0.90;;;;;;;24.82;54.17;100293.97;4949390;29;20058;-81
2023/08/26 10:30:05;;;;;;;3.15;1.08;;;;;;;25.54;54.44;100299.41;4948214;29;20089;-86
2023/08/26 10:32:31;;;;;;;3.78;0.93;;;;;;;26.16;51.29;100305.00;4951506;29;20063;-85
2023/08/26 10:34:58;;;;;;;5.13;1.30;;;;;;;26.81;49.85;100299.41;4971411;28;20070;-87
2023/08/26 10:37:26;;;;;;;3.58;1.02;;;;;;;27.50;45.25;100292.91;4955037;29;20126;-89
2023/08/26 10:39:52;;;;;;;3.88;1.20;;;;;;;26.04;47.99;100307.63;4954407;29;20534;-87
2023/08/26 10:42:19;;;;;;;5.25;1.30;;;;;;;25.88;52.34;100316.50;4950361;28;20047;-88
2023/08/26 10:44:53;;;;;;;3.50;1.00;;;;;;;25.91;51.75;100312.25;4952894;29;20090;-82
2023/08/26 10:47:40;;;;;;;4.15;1.17;;;;;;;25.37;54.19;100311.34;4948690;28;20054;-83
2023/08/26 10:50:16;;;;;;;4.40;1.20;;;;;;;26.28;49.54;100296.78;4948352;29;20071;-83
2023/08/26 10:52:43;;;;;;;3.45;1.20;;;;;;;26.89;46.14;100302.53;4938450;29;20046;-82
2023/08/26 10:55:26;;;;;;;3.42;1.00;;;;;;;24.84;51.79;100297.25;4951618;29;20114;-80